sensor_id;sensor_type;location;lat;lon;timestamp;pressure;altitude;pressure_sealevel;temperature;humidity
65190;BME280;51777;53.570;9.984;2022-10-31T00:00:25;101636.16;;;14.25;100.00
65190;BME280;51777;53.570;9.984;2022-10-31T00:02:50;101643.97;;;14.25;100.00
65190;BME280;51777;53.570;9.984;2022-10-31T00:05:16;101646.44;;;14.27;100.00
65190;BME280;51777;53.570;9.984;2022-10-31T00:07:41;101648.34;;;14.25;100.00
65190;BME280;51777;53.570;9.984;2022-10-31T00:10:07;101655.88;;;14.28;100.00
65190;BME280;51777;53.570;9.984;2022-10-31T00:12:33;101650.69;;;14.28;100.00
65190;BME280;51777;53.570;9.984;2022-10-31T00:14:58;101653.28;;;14.28;100.00
65190;BME280;51777;53.570;9.984;2022-10-31T00:17:23;101652.97;;;14.31;100.00
65190;BME280;51777;53.570;9.984;2022-10-31T00:19:49;101652.47;;;14.27;100.00
65190;BME280;51777;53.570;9.984;2022-10-31T00:22:14;101656.84;;;14.27;100.00
65190;BME280;51777;53.570;9.984;2022-10-31T00:24:40;101662.88;;;14.27;100.00
65190;BME280;51777;53.570;9.984;2022-10-31T00:27:05;101657.66;;;14.27;100.00
65190;BME280;51777;53.570;9.984;2022-10-31T00:29:31;101652.59;;;14.26;100.00
65190;BME280;51777;53.570;9.984;2022-10-31T00:31:56;101661.34;;;14.25;100.00
65190;BME280;51777;53.570;9.984;2022-10-31T00:34:21;101664.91;;;14.24;100.00
65190;BME280;51777;53.570;9.984;2022-10-31T00:36:47;101660.69;;;14.23;100.00
65190;BME280;51777;53.570;9.984;2022-10-31T00:39:12;101665.88;;;14.23;100.00
65190;BME280;51777;53.570;9.984;2022-10-31T00:41:38;101661.81;;;14.20;100.00
65190;BME280;51777;53.570;9.984;2022-10-31T00:44:03;101655.63;;;14.21;100.00
65190;BME280;51777;53.570;9.984;2022-10-31T00:46:29;101643.59;;;14.20;100.00
65190;BME280;51777;53.570;9.984;2022-10-31T00:48:54;101644.41;;;14.21;100.00
65190;BME280;51777;53.570;9.984;2022-10-31T00:51:20;101639.50;;;14.18;100.00
65190;BME280;51777;53.570;9.984;2022-10-31T00:53:45;101650.06;;;14.16;100.00
65190;BME280;51777;53.570;9.984;2022-10-31T00:56:10;101645.13;;;14.13;100.00
65190;BME280;51777;53.570;9.984;2022-10-31T00:58:36;101655.69;;;14.11;100.00
65190;BME280;51777;53.570;9.984;2022-10-31T01:01:02;101654.19;;;14.09;100.00
65190;BME280;51777;53.570;9.984;2022-10-31T01:03:30;101655.31;;;14.06;100.00
65190;BME280;51777;53.570;9.984;2022-10-31T01:06:07;101665.72;;;14.06;100.00
65190;BME280;51777;53.570;9.984;2022-10-31T01:08:34;101678.06;;;14.04;100.00
65190;BME280;51777;53.570;9.984;2022-10-31T01:11:18;101668.63;;;14.03;100.00
65190;BME280;51777;53.570;9.984;2022-10-31T01:13:44;101668.22;;;13.98;100.00
65190;BME280;51777;53.570;9.984;2022-10-31T01:16:13;101672.91;;;13.95;100.00
65190;BME280;51777;53.570;9.984;2022-10-31T01:18:39;101686.03;;;13.93;100.00
65190;BME280;51777;53.570;9.984;2022-10-31T01:21:16;101687.69;;;13.94;100.00
65190;BME280;51777;53.570;9.984;2022-10-31T01:23:42;101695.63;;;13.93;100.00
65190;BME280;51777;53.570;9.984;2022-10-31T01:28:47;101697.72;;;13.89;100.00
65190;BME280;51777;53.570;9.984;2022-10-31T01:31:14;101691.81;;;13.87;100.00
65190;BME280;51777;53.570;9.984;2022-10-31T01:33:39;101702.75;;;13.91;100.00
65190;BME280;51777;53.570;9.984;2022-10-31T01:38:42;101703.56;;;13.91;100.00
65190;BME280;51777;53.570;9.984;2022-10-31T01:41:10;101708.38;;;13.86;100.00
65190;BME280;51777;53.570;9.984;2022-10-31T01:43:53;101694.84;;;13.82;100.00
65190;BME280;51777;53.570;9.984;2022-10-31T01:46:25;101699.22;;;13.82;100.00
65190;BME280;51777;53.570;9.984;2022-10-31T01:48:53;101701.00;;;13.81;100.00
65190;BME280;51777;53.570;9.984;2022-10-31T01:51:24;101704.72;;;13.79;100.00
65190;BME280;51777;53.570;9.984;2022-10-31T01:53:52;101707.31;;;13.79;100.00
65190;BME280;51777;53.570;9.984;2022-10-31T01:56:19;101710.75;;;13.79;100.00
65190;BME280;51777;53.570;9.984;2022-10-31T01:58:46;101711.69;;;13.78;100.00
65190;BME280;51777;53.570;9.984;2022-10-31T02:01:13;101720.31;;;13.79;100.00
65190;BME280;51777;53.570;9.984;2022-10-31T02:03:40;101724.00;;;13.76;100.00
65190;BME280;51777;53.570;9.984;2022-10-31T02:06:10;101727.44;;;13.77;100.00
65190;BME280;51777;53.570;9.984;2022-10-31T02:08:39;101723.31;;;13.74;100.00
65190;BME280;51777;53.570;9.984;2022-10-31T02:11:05;101712.94;;;13.74;100.00
65190;BME280;51777;53.570;9.984;2022-10-31T02:13:33;101722.78;;;13.71;100.00
65190;BME280;51777;53.570;9.984;2022-10-31T02:15:59;101723.09;;;13.68;100.00
65190;BME280;51777;53.570;9.984;2022-10-31T02:18:27;101725.16;;;13.64;100.00
65190;BME280;51777;53.570;9.984;2022-10-31T02:21:03;101727.88;;;13.63;100.00
65190;BME280;51777;53.570;9.984;2022-10-31T02:29:06;101731.03;;;13.57;100.00
65190;BME280;51777;53.570;9.984;2022-10-31T02:34:21;101738.16;;;13.55;100.00
65190;BME280;51777;53.570;9.984;2022-10-31T02:37:22;101743.63;;;13.51;100.00
65190;BME280;51777;53.570;9.984;2022-10-31T02:39:54;101740.34;;;13.49;100.00
65190;BME280;51777;53.570;9.984;2022-10-31T02:42:31;101741.31;;;13.48;100.00
65190;BME280;51777;53.570;9.984;2022-10-31T02:45:11;101743.91;;;13.48;100.00
65190;BME280;51777;53.570;9.984;2022-10-31T02:47:41;101741.59;;;13.45;100.00
65190;BME280;51777;53.570;9.984;2022-10-31T02:50:20;101739.28;;;13.42;100.00
65190;BME280;51777;53.570;9.984;2022-10-31T02:52:50;101742.97;;;13.40;100.00
65190;BME280;51777;53.570;9.984;2022-10-31T02:57:51;101749.25;;;13.37;100.00
65190;BME280;51777;53.570;9.984;2022-10-31T03:00:18;101751.19;;;13.35;100.00
65190;BME280;51777;53.570;9.984;2022-10-31T03:05:16;101754.88;;;13.33;100.00
65190;BME280;51777;53.570;9.984;2022-10-31T03:10:20;101753.53;;;13.29;100.00
65190;BME280;51777;53.570;9.984;2022-10-31T03:14:12;101754.34;;;13.29;100.00
65190;BME280;51777;53.570;9.984;2022-10-31T03:16:30;101758.97;;;13.26;100.00
65190;BME280;51777;53.570;9.984;2022-10-31T03:21:30;101760.34;;;13.20;100.00
65190;BME280;51777;53.570;9.984;2022-10-31T03:23:59;101765.56;;;13.20;100.00
65190;BME280;51777;53.570;9.984;2022-10-31T03:26:25;101766.50;;;13.19;100.00
65190;BME280;51777;53.570;9.984;2022-10-31T03:29:02;101765.81;;;13.17;100.00
65190;BME280;51777;53.570;9.984;2022-10-31T03:31:34;101768.28;;;13.18;100.00
65190;BME280;51777;53.570;9.984;2022-10-31T03:34:02;101773.59;;;13.17;100.00
65190;BME280;51777;53.570;9.984;2022-10-31T03:36:30;101772.06;;;13.14;100.00
65190;BME280;51777;53.570;9.984;2022-10-31T03:38:56;101772.91;;;13.15;100.00
65190;BME280;51777;53.570;9.984;2022-10-31T03:41:26;101776.44;;;13.14;100.00
65190;BME280;51777;53.570;9.984;2022-10-31T03:44:06;101780.81;;;13.13;100.00
65190;BME280;51777;53.570;9.984;2022-10-31T03:46:33;101788.75;;;13.12;100.00
65190;BME280;51777;53.570;9.984;2022-10-31T03:48:59;101789.69;;;13.11;100.00
65190;BME280;51777;53.570;9.984;2022-10-31T03:51:32;101784.50;;;13.11;100.00
65190;BME280;51777;53.570;9.984;2022-10-31T03:54:06;101786.44;;;13.09;100.00
65190;BME280;51777;53.570;9.984;2022-10-31T03:56:36;101797.78;;;13.08;100.00
65190;BME280;51777;53.570;9.984;2022-10-31T03:59:10;101807.47;;;13.06;100.00
65190;BME280;51777;53.570;9.984;2022-10-31T04:01:44;101807.75;;;13.03;100.00
65190;BME280;51777;53.570;9.984;2022-10-31T04:04:12;101813.88;;;13.02;100.00
65190;BME280;51777;53.570;9.984;2022-10-31T04:06:39;101817.31;;;13.02;100.00
65190;BME280;51777;53.570;9.984;2022-10-31T04:09:06;101813.88;;;13.02;100.00
65190;BME280;51777;53.570;9.984;2022-10-31T04:11:36;101819.78;;;13.04;100.00
65190;BME280;51777;53.570;9.984;2022-10-31T04:14:04;101819.78;;;13.04;100.00
65190;BME280;51777;53.570;9.984;2022-10-31T04:16:31;101818.13;;;13.03;100.00
65190;BME280;51777;53.570;9.984;2022-10-31T04:18:57;101817.44;;;13.01;100.00
65190;BME280;51777;53.570;9.984;2022-10-31T04:21:30;101828.38;;;13.04;100.00
65190;BME280;51777;53.570;9.984;2022-10-31T04:23:55;101825.94;;;13.03;100.00
65190;BME280;51777;53.570;9.984;2022-10-31T04:26:21;101820.72;;;13.03;100.00
65190;BME280;51777;53.570;9.984;2022-10-31T04:28:46;101822.38;;;13.04;100.00
65190;BME280;51777;53.570;9.984;2022-10-31T04:31:12;101825.94;;;13.03;100.00
65190;BME280;51777;53.570;9.984;2022-10-31T04:33:37;101825.78;;;13.04;100.00
65190;BME280;51777;53.570;9.984;2022-10-31T04:36:03;101826.59;;;13.05;100.00
65190;BME280;51777;53.570;9.984;2022-10-31T04:38:30;101817.44;;;13.01;100.00
65190;BME280;51777;53.570;9.984;2022-10-31T04:40:55;101829.44;;;13.02;100.00
65190;BME280;51777;53.570;9.984;2022-10-31T04:43:20;101830.31;;;13.02;100.00
65190;BME280;51777;53.570;9.984;2022-10-31T04:45:46;101832.63;;;13.05;100.00
65190;BME280;51777;53.570;9.984;2022-10-31T04:48:11;101836.03;;;13.06;100.00
65190;BME280;51777;53.570;9.984;2022-10-31T04:50:36;101831.13;;;13.03;100.00
65190;BME280;51777;53.570;9.984;2022-10-31T04:53:02;101832.63;;;13.05;100.00
65190;BME280;51777;53.570;9.984;2022-10-31T04:55:27;101827.44;;;13.05;100.00
65190;BME280;51777;53.570;9.984;2022-10-31T04:57:52;101830.97;;;13.04;100.00
65190;BME280;51777;53.570;9.984;2022-10-31T05:00:19;101823.06;;;13.06;100.00
65190;BME280;51777;53.570;9.984;2022-10-31T05:02:50;101837.00;;;13.05;100.00
65190;BME280;51777;53.570;9.984;2022-10-31T05:05:18;101837.13;;;13.03;100.00
65190;BME280;51777;53.570;9.984;2022-10-31T05:07:45;101837.00;;;13.05;100.00
65190;BME280;51777;53.570;9.984;2022-10-31T05:10:13;101843.16;;;13.04;100.00
65190;BME280;51777;53.570;9.984;2022-10-31T05:13:08;101836.31;;;13.03;100.00
65190;BME280;51777;53.570;9.984;2022-10-31T05:15:34;101836.31;;;13.03;100.00
65190;BME280;51777;53.570;9.984;2022-10-31T05:17:59;101838.78;;;13.04;100.00
65190;BME280;51777;53.570;9.984;2022-10-31T05:20:27;101838.63;;;13.06;100.00
65190;BME280;51777;53.570;9.984;2022-10-31T05:22:55;101843.16;;;13.04;100.00
65190;BME280;51777;53.570;9.984;2022-10-31T05:25:24;101844.09;;;13.03;100.00
65190;BME280;51777;53.570;9.984;2022-10-31T05:27:50;101843.81;;;13.06;100.00
65190;BME280;51777;53.570;9.984;2022-10-31T05:30:19;101843.69;;;13.07;100.00
65190;BME280;51777;53.570;9.984;2022-10-31T05:32:47;101842.59;;;13.10;100.00
65190;BME280;51777;53.570;9.984;2022-10-31T05:35:15;101858.16;;;13.10;100.00
65190;BME280;51777;53.570;9.984;2022-10-31T05:37:41;101852.16;;;13.09;100.00
65190;BME280;51777;53.570;9.984;2022-10-31T05:40:09;101838.63;;;13.06;100.00
65190;BME280;51777;53.570;9.984;2022-10-31T05:42:35;101840.69;;;13.12;100.00
65190;BME280;51777;53.570;9.984;2022-10-31T05:45:03;101834.13;;;13.17;100.00
65190;BME280;51777;53.570;9.984;2022-10-31T05:47:28;101837.31;;;13.21;100.00
65190;BME280;51777;53.570;9.984;2022-10-31T05:49:53;101842.09;;;13.26;100.00
65190;BME280;51777;53.570;9.984;2022-10-31T05:52:19;101845.25;;;13.29;100.00
65190;BME280;51777;53.570;9.984;2022-10-31T05:54:44;101851.81;;;13.33;100.00
65190;BME280;51777;53.570;9.984;2022-10-31T05:57:10;101848.09;;;13.36;100.00
65190;BME280;51777;53.570;9.984;2022-10-31T05:59:35;101854.81;;;13.38;100.00
65190;BME280;51777;53.570;9.984;2022-10-31T06:02:00;101843.44;;;13.39;100.00
65190;BME280;51777;53.570;9.984;2022-10-31T06:04:26;101854.56;;;13.41;100.00
65190;BME280;51777;53.570;9.984;2022-10-31T06:06:51;101859.31;;;13.46;100.00
65190;BME280;51777;53.570;9.984;2022-10-31T06:09:16;101859.19;;;13.47;100.00
65190;BME280;51777;53.570;9.984;2022-10-31T06:11:42;101857.56;;;13.46;100.00
65190;BME280;51777;53.570;9.984;2022-10-31T06:14:07;101855.78;;;13.47;100.00
65190;BME280;51777;53.570;9.984;2022-10-31T06:16:33;101863.44;;;13.48;100.00
65190;BME280;51777;53.570;9.984;2022-10-31T06:18:58;101865.88;;;13.50;100.00
65190;BME280;51777;53.570;9.984;2022-10-31T06:21:24;101863.03;;;13.53;100.00
65190;BME280;51777;53.570;9.984;2022-10-31T06:23:49;101871.66;;;13.54;100.00
65190;BME280;51777;53.570;9.984;2022-10-31T06:26:15;101873.97;;;13.47;100.00
65190;BME280;51777;53.570;9.984;2022-10-31T06:28:40;101877.66;;;13.44;100.00
65190;BME280;51777;53.570;9.984;2022-10-31T06:31:05;101871.50;;;13.45;100.00
65190;BME280;51777;53.570;9.984;2022-10-31T06:33:32;101864.50;;;13.36;100.00
65190;BME280;51777;53.570;9.984;2022-10-31T06:35:57;101863.69;;;13.26;100.00
65190;BME280;51777;53.570;9.984;2022-10-31T06:38:22;101866.41;;;13.25;100.00
65190;BME280;51777;53.570;9.984;2022-10-31T06:40:48;101872.72;;;13.22;100.00
65190;BME280;51777;53.570;9.984;2022-10-31T06:43:14;101877.34;;;13.18;100.00
65190;BME280;51777;53.570;9.984;2022-10-31T06:45:40;101873.47;;;13.13;100.00
65190;BME280;51777;53.570;9.984;2022-10-31T06:48:05;101879.63;;;13.12;100.00
65190;BME280;51777;53.570;9.984;2022-10-31T06:50:31;101878.41;;;13.16;100.00
65190;BME280;51777;53.570;9.984;2022-10-31T06:52:58;101892.66;;;13.21;100.00
65190;BME280;51777;53.570;9.984;2022-10-31T06:55:25;101896.09;;;13.22;100.00
65190;BME280;51777;53.570;9.984;2022-10-31T06:57:52;101900.31;;;13.23;100.00
65190;BME280;51777;53.570;9.984;2022-10-31T07:00:18;101910.16;;;13.19;100.00
65190;BME280;51777;53.570;9.984;2022-10-31T07:03:03;101902.38;;;13.19;100.00
65190;BME280;51777;53.570;9.984;2022-10-31T07:05:29;101917.00;;;13.20;100.00
65190;BME280;51777;53.570;9.984;2022-10-31T07:07:57;101919.66;;;13.09;100.00
65190;BME280;51777;53.570;9.984;2022-10-31T07:10:24;101916.38;;;13.07;100.00
65190;BME280;51777;53.570;9.984;2022-10-31T07:12:58;101928.00;;;13.13;100.00
65190;BME280;51777;53.570;9.984;2022-10-31T07:15:25;101924.66;;;13.22;100.00
65190;BME280;51777;53.570;9.984;2022-10-31T07:17:51;101921.38;;;13.20;100.00
65190;BME280;51777;53.570;9.984;2022-10-31T07:20:18;101930.94;;;13.19;100.00
65190;BME280;51777;53.570;9.984;2022-10-31T07:22:44;101929.16;;;13.20;100.00
65190;BME280;51777;53.570;9.984;2022-10-31T07:25:09;101936.41;;;13.26;100.00
65190;BME280;51777;53.570;9.984;2022-10-31T07:27:42;101934.25;;;13.31;100.00
65190;BME280;51777;53.570;9.984;2022-10-31T07:30:09;101937.81;;;13.30;100.00
65190;BME280;51777;53.570;9.984;2022-10-31T07:32:46;101936.69;;;13.23;100.00
65190;BME280;51777;53.570;9.984;2022-10-31T07:35:17;101939.63;;;13.09;100.00
65190;BME280;51777;53.570;9.984;2022-10-31T07:37:43;101933.88;;;13.05;100.00
65190;BME280;51777;53.570;9.984;2022-10-31T07:40:09;101936.44;;;12.96;100.00
65190;BME280;51777;53.570;9.984;2022-10-31T07:42:36;101942.31;;;12.98;100.00
65190;BME280;51777;53.570;9.984;2022-10-31T07:45:06;101938.38;;;13.03;100.00
65190;BME280;51777;53.570;9.984;2022-10-31T07:47:49;101944.53;;;13.12;100.00
65190;BME280;51777;53.570;9.984;2022-10-31T07:50:17;101944.75;;;13.20;100.00
65190;BME280;51777;53.570;9.984;2022-10-31T07:52:43;101953.38;;;13.30;100.00
65190;BME280;51777;53.570;9.984;2022-10-31T07:55:09;101959.69;;;13.37;100.00
65190;BME280;51777;53.570;9.984;2022-10-31T07:57:34;101960.13;;;13.42;100.00
65190;BME280;51777;53.570;9.984;2022-10-31T08:00:03;101956.97;;;13.48;100.00
65190;BME280;51777;53.570;9.984;2022-10-31T08:02:28;101947.41;;;13.59;100.00
65190;BME280;51777;53.570;9.984;2022-10-31T08:04:53;101951.94;;;13.66;100.00
65190;BME280;51777;53.570;9.984;2022-10-31T08:07:20;101944.41;;;13.73;100.00
65190;BME280;51777;53.570;9.984;2022-10-31T08:09:45;101950.28;;;13.85;100.00
65190;BME280;51777;53.570;9.984;2022-10-31T08:12:10;101956.72;;;14.00;100.00
65190;BME280;51777;53.570;9.984;2022-10-31T08:14:36;101956.19;;;14.16;100.00
65190;BME280;51777;53.570;9.984;2022-10-31T08:17:01;101954.47;;;14.34;100.00
65190;BME280;51777;53.570;9.984;2022-10-31T08:19:26;101955.97;;;14.36;100.00
65190;BME280;51777;53.570;9.984;2022-10-31T08:21:53;101951.22;;;14.22;100.00
65190;BME280;51777;53.570;9.984;2022-10-31T08:24:23;101942.75;;;14.20;100.00
65190;BME280;51777;53.570;9.984;2022-10-31T08:26:49;101944.09;;;14.24;100.00
65190;BME280;51777;53.570;9.984;2022-10-31T08:29:15;101952.72;;;14.44;100.00
65190;BME280;51777;53.570;9.984;2022-10-31T08:31:41;101954.75;;;14.50;100.00
65190;BME280;51777;53.570;9.984;2022-10-31T08:34:06;101960.88;;;14.68;100.00
65190;BME280;51777;53.570;9.984;2022-10-31T08:36:33;101967.56;;;14.71;100.00
65190;BME280;51777;53.570;9.984;2022-10-31T08:38:59;101965.38;;;14.76;100.00
65190;BME280;51777;53.570;9.984;2022-10-31T08:41:24;101970.66;;;14.84;100.00
65190;BME280;51777;53.570;9.984;2022-10-31T08:43:50;101967.84;;;14.78;100.00
65190;BME280;51777;53.570;9.984;2022-10-31T08:46:15;101974.81;;;14.77;100.00
65190;BME280;51777;53.570;9.984;2022-10-31T08:48:41;101972.91;;;14.69;100.00
65190;BME280;51777;53.570;9.984;2022-10-31T08:51:06;101971.16;;;14.60;100.00
65190;BME280;51777;53.570;9.984;2022-10-31T08:53:32;101966.38;;;14.56;100.00
65190;BME280;51777;53.570;9.984;2022-10-31T08:55:57;101967.34;;;14.55;100.00
65190;BME280;51777;53.570;9.984;2022-10-31T08:58:23;101959.13;;;14.50;100.00
65190;BME280;51777;53.570;9.984;2022-10-31T09:00:51;101966.00;;;14.41;100.00
65190;BME280;51777;53.570;9.984;2022-10-31T09:03:22;101965.44;;;14.37;100.00
65190;BME280;51777;53.570;9.984;2022-10-31T09:05:48;101960.63;;;14.43;100.00
65190;BME280;51777;53.570;9.984;2022-10-31T09:08:14;101964.47;;;14.38;100.00
65190;BME280;51777;53.570;9.984;2022-10-31T09:10:40;101956.41;;;14.42;100.00
65190;BME280;51777;53.570;9.984;2022-10-31T09:15:35;101953.53;;;14.35;100.00
65190;BME280;51777;53.570;9.984;2022-10-31T09:18:01;101948.91;;;14.19;100.00
65190;BME280;51777;53.570;9.984;2022-10-31T09:20:28;101951.06;;;14.24;100.00
65190;BME280;51777;53.570;9.984;2022-10-31T09:23:00;101948.47;;;14.24;100.00
65190;BME280;51777;53.570;9.984;2022-10-31T09:25:27;101948.47;;;14.33;100.00
65190;BME280;51777;53.570;9.984;2022-10-31T09:27:57;101944.75;;;14.36;100.00
65190;BME280;51777;53.570;9.984;2022-10-31T09:30:23;101940.13;;;14.30;100.00
65190;BME280;51777;53.570;9.984;2022-10-31T09:32:54;101946.97;;;14.21;100.00
65190;BME280;51777;53.570;9.984;2022-10-31T09:35:19;101941.34;;;14.26;100.00
65190;BME280;51777;53.570;9.984;2022-10-31T09:37:44;101941.91;;;14.29;100.00
65190;BME280;51777;53.570;9.984;2022-10-31T09:40:10;101938.88;;;14.24;100.00
65190;BME280;51777;53.570;9.984;2022-10-31T09:42:51;101939.84;;;14.33;100.00
65190;BME280;51777;53.570;9.984;2022-10-31T09:45:41;101947.63;;;14.52;100.00
65190;BME280;51777;53.570;9.984;2022-10-31T09:51:24;101969.13;;;14.54;100.00
65190;BME280;51777;53.570;9.984;2022-10-31T09:56:22;101962.38;;;14.61;100.00
65190;BME280;51777;53.570;9.984;2022-10-31T09:58:53;101972.47;;;14.74;100.00
65190;BME280;51777;53.570;9.984;2022-10-31T10:03:50;101974.69;;;14.79;100.00
65190;BME280;51777;53.570;9.984;2022-10-31T10:06:21;101976.47;;;14.78;100.00
65190;BME280;51777;53.570;9.984;2022-10-31T10:08:48;101976.16;;;14.81;100.00
65190;BME280;51777;53.570;9.984;2022-10-31T10:22:47;101972.16;;;14.87;100.00
65190;BME280;51777;53.570;9.984;2022-10-31T10:25:21;101976.16;;;14.81;100.00
65190;BME280;51777;53.570;9.984;2022-10-31T10:30:34;101971.84;;;14.99;100.00
65190;BME280;51777;53.570;9.984;2022-10-31T10:33:22;101976.22;;;14.99;100.00
65190;BME280;51777;53.570;9.984;2022-10-31T10:35:59;101969.19;;;14.82;100.00
65190;BME280;51777;53.570;9.984;2022-10-31T10:38:52;101963.81;;;14.83;100.00
65190;BME280;51777;53.570;9.984;2022-10-31T10:41:21;101958.06;;;14.89;100.00
65190;BME280;51777;53.570;9.984;2022-10-31T10:43:49;101957.47;;;14.95;100.00
65190;BME280;51777;53.570;9.984;2022-10-31T10:49:43;101953.22;;;14.94;100.00
65190;BME280;51777;53.570;9.984;2022-10-31T10:52:13;101953.75;;;14.98;100.00
65190;BME280;51777;53.570;9.984;2022-10-31T10:54:53;101943.81;;;15.11;100.00
65190;BME280;51777;53.570;9.984;2022-10-31T11:00:18;101942.75;;;15.04;100.00
65190;BME280;51777;53.570;9.984;2022-10-31T11:02:44;101943.97;;;15.10;100.00
65190;BME280;51777;53.570;9.984;2022-10-31T11:05:33;101953.56;;;15.09;100.00
65190;BME280;51777;53.570;9.984;2022-10-31T11:08:00;101956.84;;;15.11;100.00
65190;BME280;51777;53.570;9.984;2022-10-31T11:10:26;101948.41;;;15.27;100.00
65190;BME280;51777;53.570;9.984;2022-10-31T11:15:31;101944.00;;;15.27;100.00
65190;BME280;51777;53.570;9.984;2022-10-31T11:17:59;101937.97;;;15.27;100.00
65190;BME280;51777;53.570;9.984;2022-10-31T11:20:34;101936.94;;;15.38;100.00
65190;BME280;51777;53.570;9.984;2022-10-31T11:23:20;101930.25;;;15.53;100.00
65190;BME280;51777;53.570;9.984;2022-10-31T11:25:57;101927.00;;;15.51;100.00
65190;BME280;51777;53.570;9.984;2022-10-31T11:28:23;101924.28;;;15.43;100.00
65190;BME280;51777;53.570;9.984;2022-10-31T11:30:59;101927.72;;;15.43;100.00
65190;BME280;51777;53.570;9.984;2022-10-31T11:33:35;101926.53;;;15.55;100.00
65190;BME280;51777;53.570;9.984;2022-10-31T11:36:13;101922.81;;;15.40;100.00
65190;BME280;51777;53.570;9.984;2022-10-31T11:38:41;101924.50;;;15.32;100.00
65190;BME280;51777;53.570;9.984;2022-10-31T11:41:25;101925.78;;;15.27;100.00
65190;BME280;51777;53.570;9.984;2022-10-31T11:44:12;101939.41;;;15.39;100.00
65190;BME280;51777;53.570;9.984;2022-10-31T11:46:50;101931.97;;;15.44;100.00
65190;BME280;51777;53.570;9.984;2022-10-31T11:49:39;101931.75;;;15.55;100.00
65190;BME280;51777;53.570;9.984;2022-10-31T11:52:29;101933.53;;;15.73;100.00
65190;BME280;51777;53.570;9.984;2022-10-31T11:55:30;101926.34;;;15.67;100.00
65190;BME280;51777;53.570;9.984;2022-10-31T11:57:56;101923.41;;;15.70;100.00
65190;BME280;51777;53.570;9.984;2022-10-31T12:00:38;101921.78;;;15.69;100.00
65190;BME280;51777;53.570;9.984;2022-10-31T12:03:11;101906.97;;;15.69;100.00
65190;BME280;51777;53.570;9.984;2022-10-31T12:05:40;101904.84;;;15.55;100.00
65190;BME280;51777;53.570;9.984;2022-10-31T12:08:11;101904.84;;;15.37;100.00
65190;BME280;51777;53.570;9.984;2022-10-31T12:13:37;101899.97;;;15.24;100.00
65190;BME280;51777;53.570;9.984;2022-10-31T12:16:21;101903.19;;;15.18;100.00
65190;BME280;51777;53.570;9.984;2022-10-31T12:19:09;101908.03;;;15.13;100.00
65190;BME280;51777;53.570;9.984;2022-10-31T12:24:48;101907.94;;;15.05;100.00
65190;BME280;51777;53.570;9.984;2022-10-31T12:27:27;101907.00;;;14.96;100.00
65190;BME280;51777;53.570;9.984;2022-10-31T12:30:19;101883.72;;;14.95;100.00
65190;BME280;51777;53.570;9.984;2022-10-31T12:38:34;101896.66;;;15.14;100.00
65190;BME280;51777;53.570;9.984;2022-10-31T12:41:18;101899.63;;;15.19;100.00
65190;BME280;51777;53.570;9.984;2022-10-31T12:43:50;101899.31;;;15.22;100.00
65190;BME280;51777;53.570;9.984;2022-10-31T12:46:29;101899.91;;;15.34;100.00
65190;BME280;51777;53.570;9.984;2022-10-31T12:52:04;101904.09;;;15.27;100.00
65190;BME280;51777;53.570;9.984;2022-10-31T12:54:55;101894.34;;;15.29;100.00
65190;BME280;51777;53.570;9.984;2022-10-31T12:58:17;101889.34;;;15.18;100.00
65190;BME280;51777;53.570;9.984;2022-10-31T13:00:17;101895.53;;;15.17;100.00
65190;BME280;51777;53.570;9.984;2022-10-31T13:02:50;101880.56;;;15.37;100.00
65190;BME280;51777;53.570;9.984;2022-10-31T13:07:53;101872.97;;;15.79;100.00
65190;BME280;51777;53.570;9.984;2022-10-31T13:10:32;101864.75;;;15.92;100.00
65190;BME280;51777;53.570;9.984;2022-10-31T13:13:06;101865.63;;;16.00;100.00
65190;BME280;51777;53.570;9.984;2022-10-31T13:15:38;101871.53;;;16.02;100.00
65190;BME280;51777;53.570;9.984;2022-10-31T13:18:15;101876.41;;;15.79;100.00
65190;BME280;51777;53.570;9.984;2022-10-31T13:20:44;101874.91;;;15.59;100.00
65190;BME280;51777;53.570;9.984;2022-10-31T13:23:19;101872.25;;;15.51;100.00
65190;BME280;51777;53.570;9.984;2022-10-31T13:25:50;101859.28;;;15.41;100.00
65190;BME280;51777;53.570;9.984;2022-10-31T13:31:01;101856.44;;;15.35;100.00
65190;BME280;51777;53.570;9.984;2022-10-31T13:33:35;101846.56;;;15.38;100.00
65190;BME280;51777;53.570;9.984;2022-10-31T13:44:15;101836.38;;;16.23;100.00
65190;BME280;51777;53.570;9.984;2022-10-31T13:46:44;101835.28;;;16.25;100.00
65190;BME280;51777;53.570;9.984;2022-10-31T13:57:13;101810.69;;;16.02;100.00
65190;BME280;51777;53.570;9.984;2022-10-31T13:59:47;101814.28;;;16.01;100.00
65190;BME280;51777;53.570;9.984;2022-10-31T14:02:16;101809.97;;;15.92;100.00
65190;BME280;51777;53.570;9.984;2022-10-31T14:04:56;101814.00;;;15.86;100.00
65190;BME280;51777;53.570;9.984;2022-10-31T14:07:23;101793.56;;;15.73;100.00
65190;BME280;51777;53.570;9.984;2022-10-31T14:09:54;101794.09;;;15.77;100.00
65190;BME280;51777;53.570;9.984;2022-10-31T14:12:33;101786.81;;;15.89;100.00
65190;BME280;51777;53.570;9.984;2022-10-31T14:15:22;101784.06;;;15.90;100.00
65190;BME280;51777;53.570;9.984;2022-10-31T14:18:05;101778.28;;;15.78;100.00
65190;BME280;51777;53.570;9.984;2022-10-31T14:26:19;101773.38;;;15.57;100.00
65190;BME280;51777;53.570;9.984;2022-10-31T14:28:46;101770.59;;;15.51;100.00
65190;BME280;51777;53.570;9.984;2022-10-31T14:31:37;101749.16;;;15.39;100.00
65190;BME280;51777;53.570;9.984;2022-10-31T14:34:28;101765.47;;;15.23;100.00